sensor_id;sensor_type;location;lat;lon;timestamp;temperature;humidity
49717;DHT22;35609;53.166;7.610;2023-04-06T00:01:51;-0.80;99.90
49717;DHT22;35609;53.166;7.610;2023-04-06T00:04:17;-0.90;99.90
49717;DHT22;35609;53.166;7.610;2023-04-06T00:06:43;-1.10;99.90
49717;DHT22;35609;53.166;7.610;2023-04-06T00:09:08;-0.80;99.90
49717;DHT22;35609;53.166;7.610;2023-04-06T00:11:34;-0.80;99.90
49717;DHT22;35609;53.166;7.610;2023-04-06T00:14:00;-1.20;99.90
49717;DHT22;35609;53.166;7.610;2023-04-06T00:16:26;-1.10;99.90
49717;DHT22;35609;53.166;7.610;2023-04-06T00:18:51;-1.30;99.90
49717;DHT22;35609;53.166;7.610;2023-04-06T00:21:17;-1.20;99.90
49717;DHT22;35609;53.166;7.610;2023-04-06T00:23:43;-1.30;99.90
49717;DHT22;35609;53.166;7.610;2023-04-06T00:26:09;-1.00;99.90
49717;DHT22;35609;53.166;7.610;2023-04-06T00:28:37;-1.30;99.90
49717;DHT22;35609;53.166;7.610;2023-04-06T00:31:03;-0.90;99.90
49717;DHT22;35609;53.166;7.610;2023-04-06T00:33:28;-1.00;99.90
49717;DHT22;35609;53.166;7.610;2023-04-06T00:35:54;-0.90;99.90
49717;DHT22;35609;53.166;7.610;2023-04-06T00:38:21;-1.50;99.90
49717;DHT22;35609;53.166;7.610;2023-04-06T00:40:47;-1.10;99.90
49717;DHT22;35609;53.166;7.610;2023-04-06T00:43:13;-1.40;99.90
49717;DHT22;35609;53.166;7.610;2023-04-06T00:45:39;-1.50;99.90
49717;DHT22;35609;53.166;7.610;2023-04-06T00:48:05;-1.00;99.90
49717;DHT22;35609;53.166;7.610;2023-04-06T00:50:31;-0.90;99.90
49717;DHT22;35609;53.166;7.610;2023-04-06T00:52:58;-0.80;99.90
49717;DHT22;35609;53.166;7.610;2023-04-06T00:55:25;-1.30;99.90
49717;DHT22;35609;53.166;7.610;2023-04-06T00:57:51;-0.90;99.90
49717;DHT22;35609;53.166;7.610;2023-04-06T01:00:17;-1.40;99.90
49717;DHT22;35609;53.166;7.610;2023-04-06T01:02:43;-1.20;99.90
49717;DHT22;35609;53.166;7.610;2023-04-06T01:05:10;-1.20;99.90
49717;DHT22;35609;53.166;7.610;2023-04-06T01:07:36;-1.20;99.90
49717;DHT22;35609;53.166;7.610;2023-04-06T01:10:03;-1.00;99.90
49717;DHT22;35609;53.166;7.610;2023-04-06T01:12:29;-1.20;99.90
49717;DHT22;35609;53.166;7.610;2023-04-06T01:14:55;-1.50;99.90
49717;DHT22;35609;53.166;7.610;2023-04-06T01:17:21;-1.10;99.90
49717;DHT22;35609;53.166;7.610;2023-04-06T01:19:46;-1.60;99.90
49717;DHT22;35609;53.166;7.610;2023-04-06T01:22:18;-1.50;99.90
49717;DHT22;35609;53.166;7.610;2023-04-06T01:24:44;-1.10;99.90
49717;DHT22;35609;53.166;7.610;2023-04-06T01:27:10;-1.60;99.90
49717;DHT22;35609;53.166;7.610;2023-04-06T01:29:35;-1.30;99.90
49717;DHT22;35609;53.166;7.610;2023-04-06T01:32:01;-1.20;99.90
49717;DHT22;35609;53.166;7.610;2023-04-06T01:34:27;-1.10;99.90
49717;DHT22;35609;53.166;7.610;2023-04-06T01:36:52;-1.80;99.90
49717;DHT22;35609;53.166;7.610;2023-04-06T01:39:19;-1.80;99.90
49717;DHT22;35609;53.166;7.610;2023-04-06T01:41:45;-1.80;99.90
49717;DHT22;35609;53.166;7.610;2023-04-06T01:44:15;-1.40;99.90
49717;DHT22;35609;53.166;7.610;2023-04-06T01:46:41;-1.50;99.90
49717;DHT22;35609;53.166;7.610;2023-04-06T01:49:07;-1.50;99.90
49717;DHT22;35609;53.166;7.610;2023-04-06T01:51:33;-2.00;99.90
49717;DHT22;35609;53.166;7.610;2023-04-06T01:53:59;-1.60;99.90
49717;DHT22;35609;53.166;7.610;2023-04-06T01:56:25;-1.70;99.90
49717;DHT22;35609;53.166;7.610;2023-04-06T01:58:50;-1.80;99.90
49717;DHT22;35609;53.166;7.610;2023-04-06T02:01:16;-1.60;99.90
49717;DHT22;35609;53.166;7.610;2023-04-06T02:04:02;-2.10;99.90
49717;DHT22;35609;53.166;7.610;2023-04-06T02:06:28;-1.60;99.90
49717;DHT22;35609;53.166;7.610;2023-04-06T02:08:54;-1.80;99.90
49717;DHT22;35609;53.166;7.610;2023-04-06T02:11:19;-1.80;99.90
49717;DHT22;35609;53.166;7.610;2023-04-06T02:13:45;-1.70;99.90
49717;DHT22;35609;53.166;7.610;2023-04-06T02:16:11;-2.10;99.90
49717;DHT22;35609;53.166;7.610;2023-04-06T02:18:36;-2.10;99.90
49717;DHT22;35609;53.166;7.610;2023-04-06T02:21:02;-1.90;99.90
49717;DHT22;35609;53.166;7.610;2023-04-06T02:23:28;-1.90;99.90
49717;DHT22;35609;53.166;7.610;2023-04-06T02:25:54;-1.90;99.90
49717;DHT22;35609;53.166;7.610;2023-04-06T02:28:20;-1.90;99.90
49717;DHT22;35609;53.166;7.610;2023-04-06T02:30:45;-2.30;99.90
49717;DHT22;35609;53.166;7.610;2023-04-06T02:33:12;-1.80;99.90
49717;DHT22;35609;53.166;7.610;2023-04-06T02:35:37;-2.10;99.90
49717;DHT22;35609;53.166;7.610;2023-04-06T02:38:03;-2.40;99.90
49717;DHT22;35609;53.166;7.610;2023-04-06T02:40:29;-1.90;99.90
49717;DHT22;35609;53.166;7.610;2023-04-06T02:42:55;-2.00;99.90
49717;DHT22;35609;53.166;7.610;2023-04-06T02:45:20;-2.50;99.90
49717;DHT22;35609;53.166;7.610;2023-04-06T02:47:46;-2.00;99.90
49717;DHT22;35609;53.166;7.610;2023-04-06T02:50:12;-2.40;99.90
49717;DHT22;35609;53.166;7.610;2023-04-06T02:52:38;-2.50;99.90
49717;DHT22;35609;53.166;7.610;2023-04-06T02:55:04;-2.60;99.90
49717;DHT22;35609;53.166;7.610;2023-04-06T02:57:30;-2.20;99.90
49717;DHT22;35609;53.166;7.610;2023-04-06T02:59:55;-2.70;99.90
49717;DHT22;35609;53.166;7.610;2023-04-06T03:02:21;-2.30;99.90
49717;DHT22;35609;53.166;7.610;2023-04-06T03:04:50;-2.70;99.90
49717;DHT22;35609;53.166;7.610;2023-04-06T03:07:16;-2.50;99.90
49717;DHT22;35609;53.166;7.610;2023-04-06T03:09:42;-2.90;99.90
49717;DHT22;35609;53.166;7.610;2023-04-06T03:12:07;-2.50;99.90
49717;DHT22;35609;53.166;7.610;2023-04-06T03:14:33;-2.90;99.90
49717;DHT22;35609;53.166;7.610;2023-04-06T03:16:59;-3.00;99.90
49717;DHT22;35609;53.166;7.610;2023-04-06T03:19:25;-3.10;99.90
49717;DHT22;35609;53.166;7.610;2023-04-06T03:21:50;-2.90;99.90
49717;DHT22;35609;53.166;7.610;2023-04-06T03:24:16;-3.00;99.90
49717;DHT22;35609;53.166;7.610;2023-04-06T03:26:42;-2.80;99.90
49717;DHT22;35609;53.166;7.610;2023-04-06T03:29:08;-2.60;99.90
49717;DHT22;35609;53.166;7.610;2023-04-06T03:31:33;-2.90;99.90
49717;DHT22;35609;53.166;7.610;2023-04-06T03:33:59;-2.60;99.90
49717;DHT22;35609;53.166;7.610;2023-04-06T03:36:25;-3.00;99.90
49717;DHT22;35609;53.166;7.610;2023-04-06T03:38:52;-2.90;99.90
49717;DHT22;35609;53.166;7.610;2023-04-06T03:41:19;-2.60;99.90
49717;DHT22;35609;53.166;7.610;2023-04-06T03:43:45;-2.60;99.90
49717;DHT22;35609;53.166;7.610;2023-04-06T03:46:11;-2.30;99.90
49717;DHT22;35609;53.166;7.610;2023-04-06T03:48:36;-2.70;99.90
49717;DHT22;35609;53.166;7.610;2023-04-06T03:51:02;-2.10;99.90
49717;DHT22;35609;53.166;7.610;2023-04-06T03:53:28;-2.30;99.90
49717;DHT22;35609;53.166;7.610;2023-04-06T03:55:53;-1.90;99.90
49717;DHT22;35609;53.166;7.610;2023-04-06T03:58:19;-2.10;99.90
49717;DHT22;35609;53.166;7.610;2023-04-06T04:00:45;-2.10;99.90
49717;DHT22;35609;53.166;7.610;2023-04-06T04:03:10;-2.00;99.90
49717;DHT22;35609;53.166;7.610;2023-04-06T04:05:36;-1.90;99.90
49717;DHT22;35609;53.166;7.610;2023-04-06T04:08:02;-2.30;99.90
49717;DHT22;35609;53.166;7.610;2023-04-06T04:10:27;-2.00;99.90
49717;DHT22;35609;53.166;7.610;2023-04-06T04:12:53;-2.00;99.90
49717;DHT22;35609;53.166;7.610;2023-04-06T04:15:19;-2.10;99.90
49717;DHT22;35609;53.166;7.610;2023-04-06T04:17:45;-2.00;99.90
49717;DHT22;35609;53.166;7.610;2023-04-06T04:20:12;-2.20;99.90
49717;DHT22;35609;53.166;7.610;2023-04-06T04:22:38;-2.10;99.90
49717;DHT22;35609;53.166;7.610;2023-04-06T04:25:04;-2.10;99.90
49717;DHT22;35609;53.166;7.610;2023-04-06T04:27:30;-2.40;99.90
49717;DHT22;35609;53.166;7.610;2023-04-06T04:29:56;-2.50;99.90
49717;DHT22;35609;53.166;7.610;2023-04-06T04:32:21;-2.60;99.90
49717;DHT22;35609;53.166;7.610;2023-04-06T04:34:47;-2.40;99.90
49717;DHT22;35609;53.166;7.610;2023-04-06T04:37:13;-2.50;99.90
49717;DHT22;35609;53.166;7.610;2023-04-06T04:39:38;-2.20;99.90
49717;DHT22;35609;53.166;7.610;2023-04-06T04:42:04;-2.50;99.90
49717;DHT22;35609;53.166;7.610;2023-04-06T04:44:30;-2.50;99.90
49717;DHT22;35609;53.166;7.610;2023-04-06T04:46:56;-2.60;99.90
49717;DHT22;35609;53.166;7.610;2023-04-06T04:49:22;-2.30;99.90
49717;DHT22;35609;53.166;7.610;2023-04-06T04:51:48;-2.30;99.90
49717;DHT22;35609;53.166;7.610;2023-04-06T04:54:13;-2.30;99.90
49717;DHT22;35609;53.166;7.610;2023-04-06T04:56:39;-2.20;99.90
49717;DHT22;35609;53.166;7.610;2023-04-06T04:59:04;-2.30;99.90
49717;DHT22;35609;53.166;7.610;2023-04-06T05:01:30;-2.30;99.90
49717;DHT22;35609;53.166;7.610;2023-04-06T05:03:56;-2.20;99.90
49717;DHT22;35609;53.166;7.610;2023-04-06T05:06:22;-2.40;99.90
49717;DHT22;35609;53.166;7.610;2023-04-06T05:08:47;-2.30;99.90
49717;DHT22;35609;53.166;7.610;2023-04-06T05:11:13;-2.30;99.90
49717;DHT22;35609;53.166;7.610;2023-04-06T05:13:38;-2.40;99.90
49717;DHT22;35609;53.166;7.610;2023-04-06T05:16:05;-2.10;99.90
49717;DHT22;35609;53.166;7.610;2023-04-06T05:18:31;-2.30;99.90
49717;DHT22;35609;53.166;7.610;2023-04-06T05:20:56;-2.10;99.90
49717;DHT22;35609;53.166;7.610;2023-04-06T05:23:22;-2.20;99.90
49717;DHT22;35609;53.166;7.610;2023-04-06T05:25:48;-2.00;99.90
49717;DHT22;35609;53.166;7.610;2023-04-06T05:28:14;-1.90;99.90
49717;DHT22;35609;53.166;7.610;2023-04-06T05:30:42;-2.10;99.90
49717;DHT22;35609;53.166;7.610;2023-04-06T05:33:09;-1.80;99.90
49717;DHT22;35609;53.166;7.610;2023-04-06T05:35:34;-1.90;99.90
49717;DHT22;35609;53.166;7.610;2023-04-06T05:38:00;-1.70;99.90
49717;DHT22;35609;53.166;7.610;2023-04-06T05:40:26;-1.80;99.90
49717;DHT22;35609;53.166;7.610;2023-04-06T05:42:51;-1.70;99.90
49717;DHT22;35609;53.166;7.610;2023-04-06T05:45:17;-1.40;99.90
49717;DHT22;35609;53.166;7.610;2023-04-06T05:47:44;-1.40;99.90
49717;DHT22;35609;53.166;7.610;2023-04-06T05:50:11;-1.30;99.90
49717;DHT22;35609;53.166;7.610;2023-04-06T05:52:36;-1.10;99.90
49717;DHT22;35609;53.166;7.610;2023-04-06T05:55:03;-1.00;99.90
49717;DHT22;35609;53.166;7.610;2023-04-06T05:57:29;-1.00;99.90
49717;DHT22;35609;53.166;7.610;2023-04-06T05:59:54;-0.90;99.90
49717;DHT22;35609;53.166;7.610;2023-04-06T06:02:21;-0.80;99.90
49717;DHT22;35609;53.166;7.610;2023-04-06T06:04:47;-0.70;99.90
49717;DHT22;35609;53.166;7.610;2023-04-06T06:07:14;-0.60;99.90
49717;DHT22;35609;53.166;7.610;2023-04-06T06:09:40;-0.40;99.90
49717;DHT22;35609;53.166;7.610;2023-04-06T06:12:06;-0.30;99.90
49717;DHT22;35609;53.166;7.610;2023-04-06T06:14:32;-0.20;99.90
49717;DHT22;35609;53.166;7.610;2023-04-06T06:16:57;-0.10;99.90
49717;DHT22;35609;53.166;7.610;2023-04-06T06:19:23;0.10;99.90
49717;DHT22;35609;53.166;7.610;2023-04-06T06:21:48;0.30;99.90
49717;DHT22;35609;53.166;7.610;2023-04-06T06:24:14;0.30;99.90
49717;DHT22;35609;53.166;7.610;2023-04-06T06:26:40;0.50;99.90
49717;DHT22;35609;53.166;7.610;2023-04-06T06:29:06;0.60;99.90
49717;DHT22;35609;53.166;7.610;2023-04-06T06:31:32;0.70;99.90
49717;DHT22;35609;53.166;7.610;2023-04-06T06:33:58;0.80;99.90
49717;DHT22;35609;53.166;7.610;2023-04-06T06:36:24;1.00;99.90
49717;DHT22;35609;53.166;7.610;2023-04-06T06:38:51;1.20;99.90
49717;DHT22;35609;53.166;7.610;2023-04-06T06:41:17;1.30;99.90
49717;DHT22;35609;53.166;7.610;2023-04-06T06:43:43;1.50;99.90
49717;DHT22;35609;53.166;7.610;2023-04-06T06:46:08;1.70;99.90
49717;DHT22;35609;53.166;7.610;2023-04-06T06:48:34;1.90;99.90
49717;DHT22;35609;53.166;7.610;2023-04-06T06:51:00;2.10;99.90
49717;DHT22;35609;53.166;7.610;2023-04-06T06:53:26;2.30;99.90
49717;DHT22;35609;53.166;7.610;2023-04-06T06:55:51;2.50;99.90
49717;DHT22;35609;53.166;7.610;2023-04-06T06:58:20;2.60;99.90
49717;DHT22;35609;53.166;7.610;2023-04-06T07:00:46;2.80;99.90
49717;DHT22;35609;53.166;7.610;2023-04-06T07:03:12;3.00;99.90
49717;DHT22;35609;53.166;7.610;2023-04-06T07:05:38;3.20;99.90
49717;DHT22;35609;53.166;7.610;2023-04-06T07:08:03;3.40;99.90
49717;DHT22;35609;53.166;7.610;2023-04-06T07:10:29;3.60;99.90
49717;DHT22;35609;53.166;7.610;2023-04-06T07:12:55;3.90;99.90
49717;DHT22;35609;53.166;7.610;2023-04-06T07:15:21;3.90;99.90
49717;DHT22;35609;53.166;7.610;2023-04-06T07:17:47;3.90;99.90
49717;DHT22;35609;53.166;7.610;2023-04-06T07:20:13;4.00;99.90
49717;DHT22;35609;53.166;7.610;2023-04-06T07:22:41;4.20;99.90
49717;DHT22;35609;53.166;7.610;2023-04-06T07:25:07;4.40;99.90
49717;DHT22;35609;53.166;7.610;2023-04-06T07:27:33;4.60;99.90
49717;DHT22;35609;53.166;7.610;2023-04-06T07:29:59;4.70;99.90
49717;DHT22;35609;53.166;7.610;2023-04-06T07:32:25;4.80;99.90
49717;DHT22;35609;53.166;7.610;2023-04-06T07:34:51;4.90;99.90
49717;DHT22;35609;53.166;7.610;2023-04-06T07:37:17;5.10;99.90
49717;DHT22;35609;53.166;7.610;2023-04-06T07:39:42;5.20;99.90
49717;DHT22;35609;53.166;7.610;2023-04-06T07:42:08;5.40;99.90
49717;DHT22;35609;53.166;7.610;2023-04-06T07:44:33;5.60;99.90
49717;DHT22;35609;53.166;7.610;2023-04-06T07:46:59;5.80;99.90
49717;DHT22;35609;53.166;7.610;2023-04-06T07:49:25;5.90;99.90
49717;DHT22;35609;53.166;7.610;2023-04-06T07:51:51;6.00;99.90
49717;DHT22;35609;53.166;7.610;2023-04-06T07:54:17;6.10;99.90
49717;DHT22;35609;53.166;7.610;2023-04-06T07:56:43;6.20;99.90
49717;DHT22;35609;53.166;7.610;2023-04-06T07:59:08;6.40;99.90
49717;DHT22;35609;53.166;7.610;2023-04-06T08:01:34;6.60;99.90
49717;DHT22;35609;53.166;7.610;2023-04-06T08:04:00;6.80;99.90
49717;DHT22;35609;53.166;7.610;2023-04-06T08:06:27;6.90;99.90
49717;DHT22;35609;53.166;7.610;2023-04-06T08:08:54;7.00;99.90
49717;DHT22;35609;53.166;7.610;2023-04-06T08:11:20;7.00;99.90
49717;DHT22;35609;53.166;7.610;2023-04-06T08:13:46;7.30;99.90
49717;DHT22;35609;53.166;7.610;2023-04-06T08:16:11;7.40;99.90
49717;DHT22;35609;53.166;7.610;2023-04-06T08:18:37;7.60;99.90
49717;DHT22;35609;53.166;7.610;2023-04-06T08:21:03;7.80;99.90
49717;DHT22;35609;53.166;7.610;2023-04-06T08:23:28;7.90;99.90
49717;DHT22;35609;53.166;7.610;2023-04-06T08:25:54;8.00;99.90
49717;DHT22;35609;53.166;7.610;2023-04-06T08:28:21;8.10;99.90
49717;DHT22;35609;53.166;7.610;2023-04-06T08:30:47;8.30;99.90
49717;DHT22;35609;53.166;7.610;2023-04-06T08:33:13;8.40;99.90
49717;DHT22;35609;53.166;7.610;2023-04-06T08:35:39;8.80;99.90
49717;DHT22;35609;53.166;7.610;2023-04-06T08:38:04;9.00;99.90
49717;DHT22;35609;53.166;7.610;2023-04-06T08:40:36;9.10;99.70
49717;DHT22;35609;53.166;7.610;2023-04-06T08:43:03;9.20;99.70
49717;DHT22;35609;53.166;7.610;2023-04-06T08:45:34;9.30;99.90
49717;DHT22;35609;53.166;7.610;2023-04-06T08:48:00;9.50;99.30
49717;DHT22;35609;53.166;7.610;2023-04-06T08:50:29;9.80;99.70
49717;DHT22;35609;53.166;7.610;2023-04-06T08:52:55;9.90;98.50
49717;DHT22;35609;53.166;7.610;2023-04-06T08:55:22;10.00;98.20
49717;DHT22;35609;53.166;7.610;2023-04-06T08:57:48;10.30;98.40
49717;DHT22;35609;53.166;7.610;2023-04-06T09:00:15;10.40;96.90
49717;DHT22;35609;53.166;7.610;2023-04-06T09:02:43;10.10;94.80
49717;DHT22;35609;53.166;7.610;2023-04-06T09:05:10;10.40;96.00
49717;DHT22;35609;53.166;7.610;2023-04-06T09:07:37;10.40;96.30
49717;DHT22;35609;53.166;7.610;2023-04-06T09:10:06;10.80;96.60
49717;DHT22;35609;53.166;7.610;2023-04-06T09:12:33;11.00;95.90
49717;DHT22;35609;53.166;7.610;2023-04-06T09:15:00;11.10;94.90
49717;DHT22;35609;53.166;7.610;2023-04-06T09:17:28;11.00;94.10
49717;DHT22;35609;53.166;7.610;2023-04-06T09:19:54;11.10;94.70
49717;DHT22;35609;53.166;7.610;2023-04-06T09:22:20;11.20;93.50
49717;DHT22;35609;53.166;7.610;2023-04-06T09:24:53;11.30;93.70
49717;DHT22;35609;53.166;7.610;2023-04-06T09:27:33;11.40;92.70
49717;DHT22;35609;53.166;7.610;2023-04-06T09:30:10;11.20;94.30
49717;DHT22;35609;53.166;7.610;2023-04-06T09:32:51;11.40;92.50
49717;DHT22;35609;53.166;7.610;2023-04-06T09:35:17;11.70;93.50
49717;DHT22;35609;53.166;7.610;2023-04-06T09:37:46;12.10;94.10
49717;DHT22;35609;53.166;7.610;2023-04-06T09:40:13;12.20;92.80
49717;DHT22;35609;53.166;7.610;2023-04-06T09:42:45;12.40;92.60
49717;DHT22;35609;53.166;7.610;2023-04-06T09:45:10;12.50;93.40
49717;DHT22;35609;53.166;7.610;2023-04-06T09:47:37;12.80;93.90
49717;DHT22;35609;53.166;7.610;2023-04-06T09:50:07;12.60;92.30
49717;DHT22;35609;53.166;7.610;2023-04-06T09:52:40;12.70;90.60
49717;DHT22;35609;53.166;7.610;2023-04-06T09:55:08;13.00;90.90
49717;DHT22;35609;53.166;7.610;2023-04-06T09:57:45;12.90;90.60
49717;DHT22;35609;53.166;7.610;2023-04-06T10:00:16;12.80;90.70
49717;DHT22;35609;53.166;7.610;2023-04-06T10:03:25;13.20;91.90
49717;DHT22;35609;53.166;7.610;2023-04-06T10:05:59;12.90;88.80
49717;DHT22;35609;53.166;7.610;2023-04-06T10:08:28;13.30;89.70
49717;DHT22;35609;53.166;7.610;2023-04-06T10:10:55;13.30;89.10
49717;DHT22;35609;53.166;7.610;2023-04-06T10:13:23;13.40;88.90
49717;DHT22;35609;53.166;7.610;2023-04-06T10:15:51;13.30;87.20
49717;DHT22;35609;53.166;7.610;2023-04-06T10:18:17;13.30;84.80
49717;DHT22;35609;53.166;7.610;2023-04-06T10:20:53;13.60;89.30
49717;DHT22;35609;53.166;7.610;2023-04-06T10:23:44;13.90;88.30
49717;DHT22;35609;53.166;7.610;2023-04-06T10:26:14;13.90;87.50
49717;DHT22;35609;53.166;7.610;2023-04-06T10:28:44;14.20;89.80
49717;DHT22;35609;53.166;7.610;2023-04-06T10:31:10;14.20;86.30
49717;DHT22;35609;53.166;7.610;2023-04-06T10:33:36;13.90;79.60
49717;DHT22;35609;53.166;7.610;2023-04-06T10:36:21;13.90;80.80
49717;DHT22;35609;53.166;7.610;2023-04-06T10:38:46;13.90;79.30
49717;DHT22;35609;53.166;7.610;2023-04-06T10:41:12;14.20;81.30
49717;DHT22;35609;53.166;7.610;2023-04-06T10:43:41;14.10;82.90
49717;DHT22;35609;53.166;7.610;2023-04-06T10:46:08;14.40;78.60
49717;DHT22;35609;53.166;7.610;2023-04-06T10:48:44;14.50;79.60
49717;DHT22;35609;53.166;7.610;2023-04-06T10:51:13;14.60;80.20
49717;DHT22;35609;53.166;7.610;2023-04-06T10:53:42;14.30;78.50
49717;DHT22;35609;53.166;7.610;2023-04-06T10:56:13;14.70;78.60
49717;DHT22;35609;53.166;7.610;2023-04-06T10:58:48;15.20;80.00
49717;DHT22;35609;53.166;7.610;2023-04-06T11:01:21;14.80;78.80
49717;DHT22;35609;53.166;7.610;2023-04-06T11:03:52;15.20;78.80
49717;DHT22;35609;53.166;7.610;2023-04-06T11:06:23;15.50;82.40
49717;DHT22;35609;53.166;7.610;2023-04-06T11:08:53;15.20;79.10
49717;DHT22;35609;53.166;7.610;2023-04-06T11:11:21;15.30;82.70
49717;DHT22;35609;53.166;7.610;2023-04-06T11:19:07;15.40;82.00
49717;DHT22;35609;53.166;7.610;2023-04-06T11:21:41;15.40;80.60
49717;DHT22;35609;53.166;7.610;2023-04-06T11:26:52;15.70;75.80
49717;DHT22;35609;53.166;7.610;2023-04-06T11:29:23;14.90;75.10
49717;DHT22;35609;53.166;7.610;2023-04-06T11:32:00;15.30;81.40
49717;DHT22;35609;53.166;7.610;2023-04-06T11:34:28;15.10;78.00
49717;DHT22;35609;53.166;7.610;2023-04-06T11:37:00;15.40;77.90
49717;DHT22;35609;53.166;7.610;2023-04-06T11:39:29;15.30;77.80
49717;DHT22;35609;53.166;7.610;2023-04-06T11:41:58;15.10;78.80
49717;DHT22;35609;53.166;7.610;2023-04-06T11:44:43;15.40;75.20
49717;DHT22;35609;53.166;7.610;2023-04-06T11:47:12;15.30;75.80
49717;DHT22;35609;53.166;7.610;2023-04-06T11:49:39;15.40;77.90
49717;DHT22;35609;53.166;7.610;2023-04-06T11:52:23;15.60;77.30
49717;DHT22;35609;53.166;7.610;2023-04-06T11:54:50;15.80;74.20
49717;DHT22;35609;53.166;7.610;2023-04-06T11:57:17;15.90;73.60
49717;DHT22;35609;53.166;7.610;2023-04-06T11:59:43;15.50;75.50
49717;DHT22;35609;53.166;7.610;2023-04-06T12:02:09;16.10;78.50
49717;DHT22;35609;53.166;7.610;2023-04-06T12:04:35;16.10;77.00
49717;DHT22;35609;53.166;7.610;2023-04-06T12:07:01;16.70;79.80
49717;DHT22;35609;53.166;7.610;2023-04-06T12:09:27;16.70;74.20
49717;DHT22;35609;53.166;7.610;2023-04-06T12:11:53;16.50;75.30
49717;DHT22;35609;53.166;7.610;2023-04-06T12:14:18;16.10;74.00
49717;DHT22;35609;53.166;7.610;2023-04-06T12:16:44;16.10;78.30
49717;DHT22;35609;53.166;7.610;2023-04-06T12:19:11;15.90;76.20
49717;DHT22;35609;53.166;7.610;2023-04-06T12:21:37;15.60;75.30
49717;DHT22;35609;53.166;7.610;2023-04-06T12:24:04;15.30;74.50
49717;DHT22;35609;53.166;7.610;2023-04-06T12:26:31;15.50;74.70
49717;DHT22;35609;53.166;7.610;2023-04-06T12:28:57;15.70;78.10
49717;DHT22;35609;53.166;7.610;2023-04-06T12:31:28;15.90;76.20
49717;DHT22;35609;53.166;7.610;2023-04-06T12:33:54;15.80;77.60
49717;DHT22;35609;53.166;7.610;2023-04-06T12:36:20;15.60;76.80
49717;DHT22;35609;53.166;7.610;2023-04-06T12:38:50;15.60;78.90
49717;DHT22;35609;53.166;7.610;2023-04-06T12:41:19;15.70;75.80
49717;DHT22;35609;53.166;7.610;2023-04-06T12:43:45;15.50;77.80
49717;DHT22;35609;53.166;7.610;2023-04-06T12:46:12;15.60;75.70
49717;DHT22;35609;53.166;7.610;2023-04-06T12:48:38;15.30;74.40
49717;DHT22;35609;53.166;7.610;2023-04-06T12:51:05;15.10;79.30
49717;DHT22;35609;53.166;7.610;2023-04-06T12:53:32;15.20;77.80
49717;DHT22;35609;53.166;7.610;2023-04-06T12:55:58;15.30;76.10
49717;DHT22;35609;53.166;7.610;2023-04-06T12:58:25;15.70;74.00
49717;DHT22;35609;53.166;7.610;2023-04-06T13:00:55;15.80;78.80
49717;DHT22;35609;53.166;7.610;2023-04-06T13:03:24;15.70;77.30
49717;DHT22;35609;53.166;7.610;2023-04-06T13:05:50;15.70;76.50
49717;DHT22;35609;53.166;7.610;2023-04-06T13:08:18;15.80;78.50
49717;DHT22;35609;53.166;7.610;2023-04-06T13:10:47;16.10;76.90
49717;DHT22;35609;53.166;7.610;2023-04-06T13:13:14;16.00;76.20
49717;DHT22;35609;53.166;7.610;2023-04-06T13:15:49;15.80;74.70
49717;DHT22;35609;53.166;7.610;2023-04-06T13:18:16;15.80;72.30
49717;DHT22;35609;53.166;7.610;2023-04-06T13:20:43;15.90;76.60
49717;DHT22;35609;53.166;7.610;2023-04-06T13:23:09;15.90;75.80
49717;DHT22;35609;53.166;7.610;2023-04-06T13:25:36;16.00;73.90
49717;DHT22;35609;53.166;7.610;2023-04-06T13:28:01;15.80;72.00
49717;DHT22;35609;53.166;7.610;2023-04-06T13:30:27;15.80;74.10
49717;DHT22;35609;53.166;7.610;2023-04-06T13:32:53;15.80;75.50
49717;DHT22;35609;53.166;7.610;2023-04-06T13:35:19;16.10;72.40
49717;DHT22;35609;53.166;7.610;2023-04-06T13:37:45;16.30;76.10
49717;DHT22;35609;53.166;7.610;2023-04-06T13:40:11;16.10;77.80
49717;DHT22;35609;53.166;7.610;2023-04-06T13:42:37;15.90;74.80
49717;DHT22;35609;53.166;7.610;2023-04-06T13:45:06;15.50;75.50
49717;DHT22;35609;53.166;7.610;2023-04-06T13:47:32;15.60;76.60
49717;DHT22;35609;53.166;7.610;2023-04-06T13:49:58;15.30;73.80
49717;DHT22;35609;53.166;7.610;2023-04-06T13:52:24;15.10;73.30
49717;DHT22;35609;53.166;7.610;2023-04-06T13:54:50;15.40;77.10
49717;DHT22;35609;53.166;7.610;2023-04-06T13:57:16;15.50;76.00
49717;DHT22;35609;53.166;7.610;2023-04-06T13:59:42;15.40;74.70
49717;DHT22;35609;53.166;7.610;2023-04-06T14:02:09;15.60;72.10
49717;DHT22;35609;53.166;7.610;2023-04-06T14:04:35;15.50;68.90
49717;DHT22;35609;53.166;7.610;2023-04-06T14:07:02;15.30;70.80
49717;DHT22;35609;53.166;7.610;2023-04-06T14:09:28;15.30;74.50
49717;DHT22;35609;53.166;7.610;2023-04-06T14:11:55;15.30;75.00
49717;DHT22;35609;53.166;7.610;2023-04-06T14:14:22;15.10;71.80
49717;DHT22;35609;53.166;7.610;2023-04-06T14:16:49;15.00;73.40
49717;DHT22;35609;53.166;7.610;2023-04-06T14:19:16;15.10;72.00
49717;DHT22;35609;53.166;7.610;2023-04-06T14:21:46;14.70;70.50
49717;DHT22;35609;53.166;7.610;2023-04-06T14:24:13;14.40;71.20
49717;DHT22;35609;53.166;7.610;2023-04-06T14:26:39;14.60;72.50
49717;DHT22;35609;53.166;7.610;2023-04-06T14:29:07;14.30;73.90
49717;DHT22;35609;53.166;7.610;2023-04-06T14:31:33;14.40;74.60
49717;DHT22;35609;53.166;7.610;2023-04-06T14:34:01;14.60;74.20
49717;DHT22;35609;53.166;7.610;2023-04-06T14:36:28;14.30;72.90
49717;DHT22;35609;53.166;7.610;2023-04-06T14:38:57;14.10;73.10
49717;DHT22;35609;53.166;7.610;2023-04-06T14:41:24;14.30;75.30
49717;DHT22;35609;53.166;7.610;2023-04-06T14:43:53;14.20;74.60
49717;DHT22;35609;53.166;7.610;2023-04-06T14:46:18;14.10;74.40
49717;DHT22;35609;53.166;7.610;2023-04-06T14:48:45;14.10;73.00
49717;DHT22;35609;53.166;7.610;2023-04-06T14:51:11;14.10;74.20
49717;DHT22;35609;53.166;7.610;2023-04-06T14:53:37;14.10;75.10
49717;DHT22;35609;53.166;7.610;2023-04-06T14:56:03;14.10;72.50
49717;DHT22;35609;53.166;7.610;2023-04-06T14:58:28;14.00;71.50
49717;DHT22;35609;53.166;7.610;2023-04-06T15:00:59;14.20;74.60
49717;DHT22;35609;53.166;7.610;2023-04-06T15:03:26;14.10;74.80
49717;DHT22;35609;53.166;7.610;2023-04-06T15:05:53;14.10;74.70
49717;DHT22;35609;53.166;7.610;2023-04-06T15:08:18;13.90;74.20
49717;DHT22;35609;53.166;7.610;2023-04-06T15:10:47;14.10;75.50
49717;DHT22;35609;53.166;7.610;2023-04-06T15:13:13;14.00;74.60
49717;DHT22;35609;53.166;7.610;2023-04-06T15:15:40;13.90;72.80
49717;DHT22;35609;53.166;7.610;2023-04-06T15:18:07;13.70;73.60
49717;DHT22;35609;53.166;7.610;2023-04-06T15:20:33;13.60;74.70
49717;DHT22;35609;53.166;7.610;2023-04-06T15:23:00;13.60;76.70
49717;DHT22;35609;53.166;7.610;2023-04-06T15:25:26;13.50;75.10
49717;DHT22;35609;53.166;7.610;2023-04-06T15:27:52;13.30;75.60
49717;DHT22;35609;53.166;7.610;2023-04-06T15:30:17;13.50;75.70
49717;DHT22;35609;53.166;7.610;2023-04-06T15:33:00;13.50;77.00
49717;DHT22;35609;53.166;7.610;2023-04-06T15:35:27;13.40;77.30
49717;DHT22;35609;53.166;7.610;2023-04-06T15:37:57;13.50;76.80
49717;DHT22;35609;53.166;7.610;2023-04-06T15:40:23;13.60;78.80